Latest Weather Observations for Port Augusta

IDS60801

Issued at 6:31 am CDT Tuesday 13 November 2018 (issued every 10 minutes, with the page automatically refreshed every 10 minutes)

About weather observations | Map of weather stations | Latest weather observations for SA | Other Formats
Station Details ID: 018201 Name: PORT AUGUSTA AERO Lat: -32.51 Lon: 137.72 Height: 13.97 m
Data from the previous 72 hours. | See also: Recent months at Port Augusta
Date/Time
CDT
Temp
°C
App
Temp
°C
Dew
Point
°C
Rel
Hum
%
Delta-T
°C
Wind Press
QNH
hPa
Press
MSL
hPa
Rain since
9am
mm
Dir  Spd
km/h
Gust
km/h
Spd
kts
Gust
kts
13/06:30am 24.6 23.1 9.0 37 8.5 WSW 7 9 4 5 1008.6 1008.5 0.0
13/06:00am 24.1 21.7 6.8 33 9.0 NW 9 11 5 6 1008.6 1008.5 0.0
13/05:30am 25.9 20.3 5.5 27 10.5 WSW 24 39 13 21 1007.9 1007.8 0.0
13/05:25am 23.8 20.0 7.4 35 8.6 WSW 17 39 9 21 1007.9 1007.8 0.0
13/05:00am 23.5 20.8 7.2 35 8.5 W 11 15 6 8 1007.0 1007.0 0.0
13/04:30am 21.2 19.0 6.3 38 7.5 W 7 11 4 6 1006.6 1006.6 0.0
13/04:00am 21.4 19.4 6.1 37 7.7 WNW 6 9 3 5 1006.5 1006.5 0.0
13/03:30am 21.9 20.4 7.0 38 7.7 N 4 7 2 4 1006.7 1006.7 0.0
13/03:00am 22.0 21.2 6.7 37 7.8 CALM 0 0 0 0 1006.7 1006.7 0.0
13/02:30am 22.1 21.4 7.1 38 7.7 CALM 0 0 0 0 1007.1 1007.1 0.0
13/02:00am 22.5 21.1 7.1 37 7.9 WSW 4 7 2 4 1008.0 1007.9 0.0
13/01:30am 22.9 20.5 7.1 36 8.2 W 9 11 5 6 1008.3 1008.2 0.0
13/01:00am 22.6 20.2 7.2 37 8.0 WSW 9 11 5 6 1008.5 1008.4 0.0
13/12:30am 23.6 22.3 7.7 36 8.4 SSE 4 6 2 3 1008.7 1008.6 0.0
13/12:00am 25.0 23.5 8.5 35 8.9 ESE 6 7 3 4 1009.0 1008.9 0.0
 
Date/Time
CDT
Temp
°C
App
Temp
°C
Dew
Point
°C
Rel
Hum
%
Delta-T
°C
Wind Press
QNH
hPa
Press
MSL
hPa
Rain since
9am
mm
Dir  Spd
km/h
Gust
km/h
Spd
kts
Gust
kts
12/11:30pm 25.8 23.4 8.8 34 9.2 ESE 11 15 6 8 1009.0 1008.9 0.0
12/11:00pm 25.8 22.8 9.2 35 9.1 ESE 15 19 8 10 1009.0 1008.9 0.0
12/10:30pm 26.2 22.5 9.5 35 9.2 ESE 19 26 10 14 1009.2 1009.1 0.0
12/10:00pm 26.5 21.9 9.8 35 9.2 SE 24 35 13 19 1009.2 1009.1 0.0
12/09:30pm 26.2 20.8 10.8 38 8.7 SE 30 39 16 21 1009.2 1009.1 0.0
12/09:00pm 25.5 20.3 12.7 45 7.4 SE 32 41 17 22 1009.2 1009.1 0.0
12/08:30pm 25.1 20.9 13.6 49 6.8 SE 28 37 15 20 1009.5 1009.4 0.0
12/08:00pm 24.8 19.6 14.6 53 6.1 SE 35 48 19 26 1009.6 1009.5 0.0
12/07:30pm 24.6 19.3 15.2 55 5.7 ESE 37 46 20 25 1009.5 1009.4 0.0
12/07:29pm 24.7 19.8 15.3 56 5.7 ESE 35 46 19 25 1009.5 1009.4 0.0
12/07:00pm 29.8 23.0 7.1 24 12.2 SSE 32 41 17 22 1008.7 1008.6 0.0
12/06:43pm 30.3 24.9 6.2 22 12.8 S 24 50 13 27 1008.5 1008.4 0.0
12/06:30pm 33.2 26.2 -7.2 7 17.5 SSW 22 32 12 17 1008.5 1008.4 0.0
12/06:00pm 34.3 29.5 -6.4 7 18.1 NNW 11 15 6 8 1008.6 1008.5 0.0
12/05:30pm 34.4 28.8 -6.3 7 18.1 NNW 15 20 8 11 1008.6 1008.5 0.0
12/05:00pm 34.8 28.3 -8.0 6 18.5 N 19 32 10 17 1008.5 1008.4 0.0
12/04:30pm 34.7 28.2 -8.1 6 18.5 NNW 19 26 10 14 1008.5 1008.4 0.0
12/04:00pm 35.6 28.9 -7.5 6 18.9 N 20 32 11 17 1008.5 1008.4 0.0
12/03:30pm 36.9 30.9 -6.5 6 19.6 NW 17 24 9 13 1008.9 1008.8 0.0
12/03:00pm 34.9 27.8 -8.0 6 18.6 NNW 22 33 12 18 1009.5 1009.4 0.0
12/02:30pm 35.0 27.2 -7.9 6 18.7 N 26 41 14 22 1009.8 1009.7 0.0
12/02:00pm 34.0 26.3 -6.6 7 17.9 NNW 26 39 14 21 1010.5 1010.4 0.0
12/01:37pm 35.8 27.6 -7.3 6 19.0 NNW 28 46 15 25 1010.7 1010.6 0.0
12/01:30pm 34.4 26.2 -8.3 6 18.4 N 28 41 15 22 1010.8 1010.7 0.0
12/01:00pm 34.7 26.1 -8.1 6 18.5 N 30 41 16 22 1011.1 1011.0 0.0
12/12:30pm 34.0 25.2 -6.6 7 17.9 N 32 43 17 23 1011.5 1011.4 0.0
12/12:00pm 34.2 25.4 -6.5 7 18.0 N 32 44 17 24 1011.9 1011.8 0.0
12/11:30am 32.9 24.1 -5.7 8 17.1 N 32 43 17 23 1012.3 1012.2 0.0
12/11:00am 32.2 24.2 -6.2 8 16.8 N 28 35 15 19 1012.8 1012.7 0.0
12/10:30am 31.6 23.5 -6.6 8 16.5 N 28 35 15 19 1013.1 1013.0 0.0
12/10:00am 31.3 26.0 -3.9 10 15.9 NE 15 30 8 16 1013.1 1013.0 0.0
12/09:30am 29.1 25.3 -1.1 14 14.1 E 9 15 5 8 1013.3 1013.2 0.0
12/09:00am 28.4 24.9 -2.6 13 14.0 N 6 9 3 5 1013.3 1013.2 0.0
12/08:30am 26.8 22.7 -2.9 14 13.1 NW 9 11 5 6 1013.2 1013.1 0.0
12/08:00am 25.9 22.2 -2.7 15 12.6 W 7 11 4 6 1012.9 1012.8 0.0
12/07:30am 24.1 20.7 -1.7 18 11.4 WSW 6 7 3 4 1012.6 1012.5 0.0
12/07:00am 22.5 18.9 -2.2 19 10.7 W 7 7 4 4 1012.3 1012.2 0.0
12/06:30am 22.1 18.1 -1.9 20 10.4 WSW 9 11 5 6 1012.2 1012.1 0.0
12/06:00am 21.8 17.8 -2.1 20 10.3 W 9 11 5 6 1012.2 1012.1 0.0
12/05:30am 21.7 17.6 -2.9 19 10.4 W 9 11 5 6 1011.9 1011.8 0.0
12/05:00am 22.1 17.7 -2.6 19 10.6 W 11 13 6 7 1011.9 1011.8 0.0
12/04:30am 23.4 18.2 -3.0 17 11.3 WNW 15 19 8 10 1012.0 1011.9 0.0
12/04:00am 22.7 18.6 -2.8 18 10.9 NW 9 15 5 8 1011.9 1011.8 0.0
12/03:30am 22.2 18.7 -3.2 18 10.7 WNW 6 7 3 4 1012.0 1011.9 0.0
12/03:00am 21.8 19.0 -3.5 18 10.6 WSW 2 7 1 4 1012.0 1011.9 0.0
12/02:30am 21.4 17.3 -3.1 19 10.3 WSW 9 13 5 7 1012.5 1012.4 0.0
12/02:00am 22.1 18.4 -3.3 18 10.7 W 7 7 4 4 1012.8 1012.7 0.0
12/01:30am 22.7 18.5 -3.6 17 11.1 WSW 9 11 5 6 1013.2 1013.1 0.0
12/01:00am 23.1 18.5 -4.1 16 11.4 W 11 13 6 7 1013.5 1013.4 0.0
12/12:30am 24.1 20.5 -3.3 16 11.8 NNW 6 9 3 5 1013.7 1013.6 0.0
12/12:00am 23.1 20.5 -4.9 15 11.5 CALM 0 0 0 0 1013.8 1013.7 0.0
 
Date/Time
CDT
Temp
°C
App
Temp
°C
Dew
Point
°C
Rel
Hum
%
Delta-T
°C
Wind Press
QNH
hPa
Press
MSL
hPa
Rain since
9am
mm
Dir  Spd
km/h
Gust
km/h
Spd
kts
Gust
kts
11/11:30pm 25.1 21.8 -4.2 14 12.5 NNE 4 11 2 6 1013.9 1013.8 0.0
11/11:00pm 26.0 22.6 -5.6 12 13.2 NE 4 6 2 3 1014.1 1014.0 0.0
11/10:30pm 25.4 22.6 -7.2 11 13.2 CALM 0 0 0 0 1014.3 1014.2 0.0
11/10:00pm 26.2 22.2 -7.8 10 13.7 NNW 6 7 3 4 1014.1 1014.0 0.0
11/09:30pm 26.2 21.6 -7.8 10 13.7 NNW 9 9 5 5 1013.9 1013.8 0.0
11/09:00pm 26.4 21.1 -7.6 10 13.8 NNW 13 13 7 7 1013.6 1013.5 0.0
11/08:30pm 27.6 22.6 -8.1 9 14.5 NNW 11 13 6 7 1013.3 1013.2 0.0
11/08:00pm 28.9 23.5 -8.6 8 15.3 NW 13 17 7 9 1013.1 1013.0 0.0
11/07:30pm 31.3 24.2 -8.6 7 16.6 NW 22 28 12 15 1012.9 1012.8 0.0
11/07:00pm 32.6 26.5 -7.6 7 17.2 N 17 26 9 14 1012.5 1012.4 0.0
11/06:30pm 32.4 25.3 -7.8 7 17.1 NNW 22 30 12 16 1012.4 1012.3 0.0
11/06:00pm 32.9 26.4 -7.4 7 17.4 NNW 19 28 10 15 1012.3 1012.2 0.0
11/05:30pm 33.3 26.9 -7.1 7 17.5 N 19 32 10 17 1012.4 1012.3 0.0
11/05:00pm 34.2 27.8 -6.5 7 18.0 N 19 28 10 15 1012.8 1012.7 0.0
11/04:30pm 34.4 28.1 -6.3 7 18.1 N 19 26 10 14 1012.8 1012.7 0.0
11/04:00pm 33.6 28.0 -6.9 7 17.7 NNE 15 26 8 14 1013.2 1013.1 0.0
11/03:30pm 33.7 27.1 -6.8 7 17.7 NE 20 26 11 14 1013.7 1013.6 0.0
11/03:00pm 34.1 28.9 -6.5 7 17.9 N 13 24 7 13 1013.9 1013.8 0.0
11/02:30pm 33.3 28.2 -5.4 8 17.3 NW 13 28 7 15 1014.4 1014.3 0.0
11/02:00pm 33.2 26.9 -5.5 8 17.2 N 19 32 10 17 1014.8 1014.7 0.0
11/01:30pm 33.0 26.5 -5.6 8 17.1 NNE 20 35 11 19 1015.4 1015.3 0.0
11/01:00pm 31.9 25.5 -6.4 8 16.6 N 19 32 10 17 1015.9 1015.8 0.0
11/12:30pm 31.6 24.7 -6.6 8 16.5 N 22 35 12 19 1016.3 1016.2 0.0
11/12:00pm 31.9 24.7 -4.9 9 16.4 N 24 37 13 20 1016.9 1016.8 0.0
11/11:30am 30.5 24.3 -3.3 11 15.3 NNW 20 33 11 18 1017.3 1017.2 0.0
11/11:00am 30.4 24.0 -4.6 10 15.5 NNW 20 30 11 16 1017.5 1017.4 0.0
11/10:30am 29.5 24.2 -0.8 14 14.2 NNE 17 28 9 15 1017.5 1017.4 0.0
11/10:00am 27.2 22.4 0.1 17 12.7 NNE 15 22 8 12 1017.6 1017.5 0.0
11/09:30am 25.6 22.6 1.7 21 11.4 NNE 7 11 4 6 1017.8 1017.7 0.0
11/09:00am 23.7 21.1 3.1 26 9.9 ENE 6 9 3 5 1017.8 1017.7 0.0
11/08:30am 23.4 21.1 5.8 32 8.9 ENE 7 13 4 7 1017.8 1017.7 0.0
11/08:00am 21.7 18.5 5.2 34 8.2 ESE 11 15 6 8 1017.6 1017.5 0.0
11/07:30am 20.6 16.9 4.6 35 7.8 ESE 13 17 7 9 1017.3 1017.2 0.0
11/07:00am 19.1 15.3 5.6 41 6.6 SE 15 19 8 10 1017.2 1017.1 0.0
11/06:30am 18.1 13.7 4.7 41 6.4 SE 17 22 9 12 1016.9 1016.8 0.0
11/06:00am 18.7 13.7 4.8 40 6.7 SSE 20 24 11 13 1016.8 1016.7 0.0
11/05:30am 18.0 14.4 4.9 42 6.3 SSE 13 19 7 10 1016.6 1016.5 0.0
11/05:00am 17.8 14.3 5.4 44 6.0 SE 13 19 7 10 1016.5 1016.4 0.0
11/04:30am 17.3 14.6 5.6 46 5.7 SE 9 13 5 7 1016.7 1016.6 0.0
11/04:00am 18.3 13.9 4.5 40 6.6 SSE 17 20 9 11 1016.4 1016.3 0.0
11/03:30am 18.1 15.4 2.8 36 7.0 S 6 11 3 6 1016.6 1016.5 0.0
11/03:00am 20.1 15.6 2.0 30 8.3 SSE 15 20 8 11 1016.7 1016.6 0.0
11/02:30am 20.3 14.6 0.7 27 8.8 S 20 26 11 14 1016.7 1016.6 0.0
11/02:00am 20.3 15.0 1.7 29 8.5 SSE 19 24 10 13 1016.8 1016.7 0.0
11/01:30am 19.7 15.2 4.2 36 7.4 SSE 17 20 9 11 1016.8 1016.7 0.0
11/01:00am 20.4 16.8 2.7 31 8.3 S 11 15 6 8 1017.2 1017.1 0.0
11/12:30am 21.2 16.0 2.5 29 8.7 SSE 19 24 10 13 1017.3 1017.2 0.0
11/12:00am 22.2 15.2 1.8 26 9.5 SSE 28 35 15 19 1016.8 1016.7 0.0
 
Date/Time
CDT
Temp
°C
App
Temp
°C
Dew
Point
°C
Rel
Hum
%
Delta-T
°C
Wind Press
QNH
hPa
Press
MSL
hPa
Rain since
9am
mm
Dir  Spd
km/h
Gust
km/h
Spd
kts
Gust
kts
10/11:30pm 22.7 15.5 2.8 27 9.5 SSE 30 39 16 21 1016.5 1016.4 0.0
10/11:00pm 22.7 16.6 2.8 27 9.5 SSE 24 35 13 19 1016.7 1016.6 0.0
10/10:30pm 23.3 16.2 -4.8 15 11.6 SSE 24 32 13 17 1016.6 1016.5 0.0
10/10:00pm 23.4 16.0 -7.6 12 12.2 SSE 24 32 13 17 1016.3 1016.2 0.0
10/09:30pm 23.4 16.2 -2.2 18 11.1 SE 26 33 14 18 1016.1 1016.0 0.0
10/09:00pm 23.3 16.8 0.4 22 10.5 SE 24 32 13 17 1015.9 1015.8 0.0
10/08:30pm 23.9 15.7 -8.3 11 12.5 SE 28 35 15 19 1015.6 1015.5 0.0
10/08:00pm 24.3 15.5 -10.6 9 13.1 SE 30 39 16 21 1015.4 1015.3 0.0
10/07:30pm 25.2 16.8 -0.8 18 11.8 SSE 33 43 18 23 1015.2 1015.1 0.0
10/07:00pm 25.8 17.6 0.5 19 11.8 SSE 33 44 18 24 1014.9 1014.8 0.0
10/06:30pm 26.8 18.1 2.0 20 12.0 SSE 37 44 20 24 1014.8 1014.7 0.0
10/06:00pm 28.0 19.5 0.7 17 13.0 SSE 35 44 19 24 1014.8 1014.7 0.0
10/05:30pm 29.6 22.6 2.0 17 13.6 SE 28 39 15 21 1015.0 1014.9 0.0
10/05:00pm 29.8 23.6 -0.5 14 14.3 SE 22 30 12 16 1015.1 1015.0 0.0
10/04:30pm 30.5 24.9 -3.3 11 15.3 ESE 17 28 9 15 1015.1 1015.0 0.0
10/04:00pm 31.0 26.2 -2.9 11 15.5 ESE 13 24 7 13 1015.2 1015.1 0.0
10/03:30pm 30.8 26.4 -5.7 9 15.9 S 9 19 5 10 1015.5 1015.4 0.0
10/03:00pm 31.0 26.8 -4.1 10 15.7 W 9 15 5 8 1015.8 1015.7 0.0
10/02:30pm 30.1 23.9 -4.8 10 15.3 WNW 19 28 10 15 1016.0 1015.9 0.0
10/02:00pm 29.8 24.9 -3.8 11 15.0 S 13 24 7 13 1016.5 1016.4 0.0
10/01:30pm 29.4 24.2 -2.9 12 14.6 SW 15 22 8 12 1016.8 1016.7 0.0
10/01:00pm 29.1 24.7 -2.1 13 14.3 N 11 24 6 13 1017.2 1017.1 0.0
10/12:30pm 28.0 24.2 -1.0 15 13.4 NNW 9 17 5 9 1017.6 1017.5 0.0
10/12:00pm 27.5 23.2 -1.4 15 13.2 WNW 11 22 6 12 1018.2 1018.1 0.0
10/11:30am 27.0 23.2 -0.9 16 12.8 SW 9 15 5 8 1018.5 1018.4 0.0
10/11:00am 26.5 22.1 0.3 18 12.3 NE 13 19 7 10 1018.7 1018.6 0.0
10/10:30am 25.5 21.7 -0.5 18 11.9 E 9 17 5 9 1018.8 1018.7 0.0
10/10:00am 24.1 20.4 -0.2 20 11.1 SE 9 15 5 8 1018.8 1018.7 0.0
10/09:30am 23.6 19.7 1.3 23 10.4 ESE 11 17 6 9 1018.9 1018.8 0.0
10/09:00am 21.9 18.2 2.1 27 9.2 SE 11 17 6 9 1018.7 1018.6 0.0
10/08:30am 21.3 16.7 1.6 27 9.1 SE 15 20 8 11 1018.6 1018.5 0.0
10/08:00am 20.4 14.9 1.8 29 8.5 SSE 20 28 11 15 1018.2 1018.1 0.0
10/07:30am 19.6 15.0 3.7 35 7.5 SSE 17 24 9 13 1017.9 1017.8 0.0
10/07:00am 17.4 13.7 2.6 37 6.7 SSE 11 13 6 7 1017.7 1017.6 0.0

Other Formats:

Comma delimited format used in spreadsheet applications
http://www.bom.gov.au/fwo/IDS60801/IDS60801.95666.axf

JavaScript Object Notation format (JSON) in row-major order
http://www.bom.gov.au/fwo/IDS60801/IDS60801.95666.json